Portada
METAR-TAF:

METAR-TAF

Aeroports :

Nakhon Ratchasima, Tailàndia

latitud: 14-56-58N, longitud: 102-18-45E, altitud: 233 m

Observació

L'informe es va fer fa 49 minuts, a les 02:00 UTC
Vent 4 kt amb direcció variable
Temperatura 29°C
Humitat 79%
Pressió 1011 hPa
Visibilitat: 9000 m
Escasses núvols a una alçada de 3000 ft

METAR: VTUQ 240200Z VRB04KT 9000 FEW030 29/25 Q1011 NOSIG

Hora: 09:49 (02:49 UTC)

Pronòstic

L'informe es va fer fa 3 hores i 49 minuts, a les 23:00 UTC
Pronòstic vàlid del 24 a les 00 UTC al 24 a les 24 UTC
Vent 6 kt del Sud-Oest
Visibilitat: 9000 m
Escasses núvols a una alçada de 3000 ft

TAF: VTUQ 232300Z 2400/2424 23006KT 9000 FEW030

Observacions i pronòstics meteorològics de més de 4000 aeroports (METAR i TAF).

Les estacions disponibles són els punts grocs i vermells al mapa.

Posi el ratolí al punt desitjat per veure el nom de l'estació.

Feu clic per veure les observacions i els pronòstics meteorològics.

Per canviar el mapa: feu clic els botons verds amb una creu de color negre per apropar; al botó verd amb un guió per allunyar la imatge; o en les fletxes verdes per a mapes adjacents.


METAR-TAF: